La Puente, California
Current Conditions -  °F | °C
As of 11:53 AM on Thursday 30 Oct 2014 (Local Time) from KFUL Reporting Station
Clear Clear  
Wind Chill: 79°   Ceiling: Unl
Heat Index: 79°   Visibility: 10mi
Dew Point: 51°   Wind: 0mph
Humidity: 38%   Direction: NA
Pressure: 29.97"   Gusts: NA
Location:  34.02°N, 117.95°W
Report Text: KFUL 301853Z 00000KT 10SM CLR 26/11 A2997 RMK AO2 SLP148 T02610106
Loading
Personal Weather Stations






























Interactive Weather Map
Tropical Storm Tracking
New forecast layout! Learn more

10-Day Weather Forecast

Advertisements
Track Severe Weather on mobile